sensor_id;sensor_type;location;lat;lon;timestamp;P1;durP1;ratioP1;P2;durP2;ratioP2
60722;SDS011;46574;52.818;6.516;2023-07-09T00:01:47;6.97;;;6.27;;
60722;SDS011;46574;52.818;6.516;2023-07-09T00:04:12;7.30;;;6.60;;
60722;SDS011;46574;52.818;6.516;2023-07-09T00:06:38;8.43;;;7.60;;
60722;SDS011;46574;52.818;6.516;2023-07-09T00:09:06;7.60;;;6.68;;
60722;SDS011;46574;52.818;6.516;2023-07-09T00:11:39;7.28;;;6.53;;
60722;SDS011;46574;52.818;6.516;2023-07-09T00:14:05;7.50;;;6.80;;
60722;SDS011;46574;52.818;6.516;2023-07-09T00:16:31;7.50;;;6.65;;
60722;SDS011;46574;52.818;6.516;2023-07-09T00:18:57;7.63;;;6.93;;
60722;SDS011;46574;52.818;6.516;2023-07-09T00:21:23;8.13;;;6.95;;
60722;SDS011;46574;52.818;6.516;2023-07-09T00:23:48;7.90;;;7.10;;
60722;SDS011;46574;52.818;6.516;2023-07-09T00:26:14;7.45;;;6.68;;
60722;SDS011;46574;52.818;6.516;2023-07-09T00:28:42;7.20;;;6.50;;
60722;SDS011;46574;52.818;6.516;2023-07-09T00:31:12;7.47;;;6.60;;
60722;SDS011;46574;52.818;6.516;2023-07-09T00:33:39;7.43;;;6.72;;
60722;SDS011;46574;52.818;6.516;2023-07-09T00:36:17;8.73;;;7.10;;
60722;SDS011;46574;52.818;6.516;2023-07-09T00:38:48;7.78;;;7.07;;
60722;SDS011;46574;52.818;6.516;2023-07-09T00:41:20;9.13;;;7.50;;
60722;SDS011;46574;52.818;6.516;2023-07-09T00:43:48;7.63;;;6.93;;
60722;SDS011;46574;52.818;6.516;2023-07-09T00:51:30;9.40;;;7.13;;
60722;SDS011;46574;52.818;6.516;2023-07-09T00:53:58;8.65;;;7.63;;
60722;SDS011;46574;52.818;6.516;2023-07-09T00:56:38;8.30;;;7.50;;
60722;SDS011;46574;52.818;6.516;2023-07-09T00:59:11;6.95;;;6.32;;
60722;SDS011;46574;52.818;6.516;2023-07-09T01:01:40;7.85;;;7.15;;
60722;SDS011;46574;52.818;6.516;2023-07-09T01:04:06;7.97;;;7.18;;
60722;SDS011;46574;52.818;6.516;2023-07-09T01:06:39;8.02;;;7.25;;
60722;SDS011;46574;52.818;6.516;2023-07-09T01:09:09;8.05;;;7.15;;
60722;SDS011;46574;52.818;6.516;2023-07-09T01:11:35;7.28;;;6.63;;
60722;SDS011;46574;52.818;6.516;2023-07-09T01:14:03;7.80;;;7.10;;
60722;SDS011;46574;52.818;6.516;2023-07-09T01:16:34;8.98;;;7.78;;
60722;SDS011;46574;52.818;6.516;2023-07-09T01:19:07;8.27;;;7.28;;
60722;SDS011;46574;52.818;6.516;2023-07-09T01:21:33;7.90;;;7.10;;
60722;SDS011;46574;52.818;6.516;2023-07-09T01:27:04;7.65;;;6.80;;
60722;SDS011;46574;52.818;6.516;2023-07-09T01:29:31;9.15;;;7.00;;
60722;SDS011;46574;52.818;6.516;2023-07-09T01:31:59;8.40;;;7.60;;
60722;SDS011;46574;52.818;6.516;2023-07-09T01:34:25;8.23;;;7.43;;
60722;SDS011;46574;52.818;6.516;2023-07-09T01:36:50;8.75;;;7.85;;
60722;SDS011;46574;52.818;6.516;2023-07-09T01:39:16;8.25;;;7.55;;
60722;SDS011;46574;52.818;6.516;2023-07-09T01:41:43;7.32;;;6.43;;
60722;SDS011;46574;52.818;6.516;2023-07-09T01:44:10;8.38;;;7.40;;
60722;SDS011;46574;52.818;6.516;2023-07-09T01:46:36;8.45;;;7.65;;
60722;SDS011;46574;52.818;6.516;2023-07-09T01:49:02;9.57;;;8.07;;
60722;SDS011;46574;52.818;6.516;2023-07-09T01:51:28;9.00;;;8.10;;
60722;SDS011;46574;52.818;6.516;2023-07-09T01:53:54;8.13;;;7.32;;
60722;SDS011;46574;52.818;6.516;2023-07-09T01:56:20;8.02;;;7.28;;
60722;SDS011;46574;52.818;6.516;2023-07-09T01:58:46;8.65;;;7.65;;
60722;SDS011;46574;52.818;6.516;2023-07-09T02:01:12;7.82;;;7.13;;
60722;SDS011;46574;52.818;6.516;2023-07-09T02:03:40;8.60;;;7.80;;
60722;SDS011;46574;52.818;6.516;2023-07-09T02:06:05;8.40;;;7.57;;
60722;SDS011;46574;52.818;6.516;2023-07-09T02:11:00;8.68;;;7.72;;
60722;SDS011;46574;52.818;6.516;2023-07-09T02:13:26;8.07;;;7.28;;
60722;SDS011;46574;52.818;6.516;2023-07-09T02:15:52;8.10;;;7.40;;
60722;SDS011;46574;52.818;6.516;2023-07-09T02:18:17;9.00;;;8.20;;
60722;SDS011;46574;52.818;6.516;2023-07-09T02:20:45;9.40;;;8.43;;
60722;SDS011;46574;52.818;6.516;2023-07-09T02:23:11;9.48;;;8.00;;
60722;SDS011;46574;52.818;6.516;2023-07-09T02:25:37;8.80;;;7.90;;
60722;SDS011;46574;52.818;6.516;2023-07-09T02:28:03;9.13;;;8.23;;
60722;SDS011;46574;52.818;6.516;2023-07-09T02:30:28;8.75;;;7.95;;
60722;SDS011;46574;52.818;6.516;2023-07-09T02:32:55;9.65;;;8.75;;
60722;SDS011;46574;52.818;6.516;2023-07-09T02:35:21;10.27;;;9.27;;
60722;SDS011;46574;52.818;6.516;2023-07-09T02:37:47;9.93;;;8.93;;
60722;SDS011;46574;52.818;6.516;2023-07-09T02:40:13;9.32;;;8.43;;
60722;SDS011;46574;52.818;6.516;2023-07-09T02:42:40;8.80;;;8.00;;
60722;SDS011;46574;52.818;6.516;2023-07-09T02:45:05;9.50;;;8.50;;
60722;SDS011;46574;52.818;6.516;2023-07-09T02:47:31;10.35;;;9.00;;
60722;SDS011;46574;52.818;6.516;2023-07-09T02:49:57;9.10;;;8.23;;
60722;SDS011;46574;52.818;6.516;2023-07-09T02:52:23;9.07;;;8.23;;
60722;SDS011;46574;52.818;6.516;2023-07-09T02:54:49;9.80;;;8.75;;
60722;SDS011;46574;52.818;6.516;2023-07-09T02:57:15;9.32;;;8.43;;
60722;SDS011;46574;52.818;6.516;2023-07-09T02:59:41;8.90;;;8.10;;
60722;SDS011;46574;52.818;6.516;2023-07-09T03:02:07;9.80;;;8.75;;
60722;SDS011;46574;52.818;6.516;2023-07-09T03:04:32;9.75;;;8.85;;
60722;SDS011;46574;52.818;6.516;2023-07-09T03:06:58;9.55;;;8.65;;
60722;SDS011;46574;52.818;6.516;2023-07-09T03:09:27;9.73;;;8.82;;
60722;SDS011;46574;52.818;6.516;2023-07-09T03:11:53;9.50;;;8.57;;
60722;SDS011;46574;52.818;6.516;2023-07-09T03:14:19;8.77;;;7.97;;
60722;SDS011;46574;52.818;6.516;2023-07-09T03:16:45;9.73;;;8.18;;
60722;SDS011;46574;52.818;6.516;2023-07-09T03:19:10;9.20;;;8.27;;
60722;SDS011;46574;52.818;6.516;2023-07-09T03:21:36;9.45;;;8.63;;
60722;SDS011;46574;52.818;6.516;2023-07-09T03:24:02;9.20;;;8.30;;
60722;SDS011;46574;52.818;6.516;2023-07-09T03:26:28;8.82;;;7.95;;
60722;SDS011;46574;52.818;6.516;2023-07-09T03:28:54;9.40;;;8.02;;
60722;SDS011;46574;52.818;6.516;2023-07-09T03:31:20;9.38;;;8.48;;
60722;SDS011;46574;52.818;6.516;2023-07-09T03:33:46;8.18;;;7.43;;
60722;SDS011;46574;52.818;6.516;2023-07-09T03:36:12;9.93;;;8.88;;
60722;SDS011;46574;52.818;6.516;2023-07-09T03:38:38;9.23;;;8.38;;
60722;SDS011;46574;52.818;6.516;2023-07-09T03:41:04;9.20;;;8.30;;
60722;SDS011;46574;52.818;6.516;2023-07-09T03:43:30;8.98;;;8.13;;
60722;SDS011;46574;52.818;6.516;2023-07-09T03:45:55;9.63;;;8.63;;
60722;SDS011;46574;52.818;6.516;2023-07-09T03:48:21;10.13;;;9.23;;
60722;SDS011;46574;52.818;6.516;2023-07-09T03:50:47;9.98;;;9.05;;
60722;SDS011;46574;52.818;6.516;2023-07-09T03:53:13;9.50;;;8.60;;
60722;SDS011;46574;52.818;6.516;2023-07-09T03:55:40;9.40;;;8.50;;
60722;SDS011;46574;52.818;6.516;2023-07-09T03:58:06;9.27;;;8.45;;
60722;SDS011;46574;52.818;6.516;2023-07-09T04:00:32;9.57;;;8.68;;
60722;SDS011;46574;52.818;6.516;2023-07-09T04:02:58;10.23;;;9.32;;
60722;SDS011;46574;52.818;6.516;2023-07-09T04:05:24;9.88;;;8.93;;
60722;SDS011;46574;52.818;6.516;2023-07-09T04:07:51;10.07;;;9.10;;
60722;SDS011;46574;52.818;6.516;2023-07-09T04:10:18;9.88;;;8.98;;
60722;SDS011;46574;52.818;6.516;2023-07-09T04:12:44;8.80;;;7.88;;
60722;SDS011;46574;52.818;6.516;2023-07-09T04:15:10;9.90;;;8.90;;
60722;SDS011;46574;52.818;6.516;2023-07-09T04:17:38;10.38;;;9.27;;
60722;SDS011;46574;52.818;6.516;2023-07-09T04:20:04;9.85;;;8.85;;
60722;SDS011;46574;52.818;6.516;2023-07-09T04:22:32;10.63;;;9.60;;
60722;SDS011;46574;52.818;6.516;2023-07-09T04:24:59;9.48;;;8.48;;
60722;SDS011;46574;52.818;6.516;2023-07-09T04:27:24;8.20;;;7.47;;
60722;SDS011;46574;52.818;6.516;2023-07-09T04:29:52;8.27;;;7.50;;
60722;SDS011;46574;52.818;6.516;2023-07-09T04:32:19;8.40;;;7.60;;
60722;SDS011;46574;52.818;6.516;2023-07-09T04:34:44;10.60;;;9.52;;
60722;SDS011;46574;52.818;6.516;2023-07-09T04:37:10;11.82;;;10.73;;
60722;SDS011;46574;52.818;6.516;2023-07-09T04:39:37;11.10;;;10.02;;
60722;SDS011;46574;52.818;6.516;2023-07-09T04:42:03;10.98;;;9.98;;
60722;SDS011;46574;52.818;6.516;2023-07-09T04:44:35;11.20;;;10.18;;
60722;SDS011;46574;52.818;6.516;2023-07-09T04:47:01;10.20;;;9.30;;
60722;SDS011;46574;52.818;6.516;2023-07-09T04:49:27;9.30;;;8.50;;
60722;SDS011;46574;52.818;6.516;2023-07-09T04:51:52;9.93;;;8.93;;
60722;SDS011;46574;52.818;6.516;2023-07-09T04:54:19;11.25;;;10.07;;
60722;SDS011;46574;52.818;6.516;2023-07-09T04:56:47;10.38;;;9.40;;
60722;SDS011;46574;52.818;6.516;2023-07-09T04:59:13;10.75;;;9.65;;
60722;SDS011;46574;52.818;6.516;2023-07-09T05:01:39;10.13;;;9.15;;
60722;SDS011;46574;52.818;6.516;2023-07-09T05:04:05;8.75;;;7.85;;
60722;SDS011;46574;52.818;6.516;2023-07-09T05:06:32;9.38;;;8.35;;
60722;SDS011;46574;52.818;6.516;2023-07-09T05:08:58;10.15;;;9.25;;
60722;SDS011;46574;52.818;6.516;2023-07-09T05:11:24;11.77;;;10.70;;
60722;SDS011;46574;52.818;6.516;2023-07-09T05:13:49;12.43;;;11.18;;
60722;SDS011;46574;52.818;6.516;2023-07-09T05:16:15;11.50;;;10.27;;
60722;SDS011;46574;52.818;6.516;2023-07-09T05:18:41;10.15;;;9.25;;
60722;SDS011;46574;52.818;6.516;2023-07-09T05:21:07;10.10;;;9.20;;
60722;SDS011;46574;52.818;6.516;2023-07-09T05:23:33;10.23;;;9.32;;
60722;SDS011;46574;52.818;6.516;2023-07-09T05:25:59;9.75;;;8.85;;
60722;SDS011;46574;52.818;6.516;2023-07-09T05:28:27;11.00;;;9.90;;
60722;SDS011;46574;52.818;6.516;2023-07-09T05:30:53;9.27;;;8.35;;
60722;SDS011;46574;52.818;6.516;2023-07-09T05:33:19;8.80;;;7.90;;
60722;SDS011;46574;52.818;6.516;2023-07-09T05:35:45;9.45;;;8.65;;
60722;SDS011;46574;52.818;6.516;2023-07-09T05:38:14;12.55;;;10.82;;
60722;SDS011;46574;52.818;6.516;2023-07-09T05:40:40;13.70;;;10.50;;
60722;SDS011;46574;52.818;6.516;2023-07-09T05:43:07;13.40;;;11.40;;
60722;SDS011;46574;52.818;6.516;2023-07-09T05:45:33;12.20;;;10.27;;
60722;SDS011;46574;52.818;6.516;2023-07-09T05:47:59;12.20;;;10.98;;
60722;SDS011;46574;52.818;6.516;2023-07-09T05:50:25;10.55;;;9.45;;
60722;SDS011;46574;52.818;6.516;2023-07-09T05:52:52;10.77;;;9.67;;
60722;SDS011;46574;52.818;6.516;2023-07-09T05:55:18;9.88;;;8.98;;
60722;SDS011;46574;52.818;6.516;2023-07-09T05:57:44;11.27;;;10.00;;
60722;SDS011;46574;52.818;6.516;2023-07-09T06:00:10;12.55;;;11.30;;
60722;SDS011;46574;52.818;6.516;2023-07-09T06:02:37;11.77;;;10.57;;
60722;SDS011;46574;52.818;6.516;2023-07-09T06:05:03;9.30;;;8.40;;
60722;SDS011;46574;52.818;6.516;2023-07-09T06:07:30;10.13;;;9.02;;
60722;SDS011;46574;52.818;6.516;2023-07-09T06:09:55;11.07;;;9.98;;
60722;SDS011;46574;52.818;6.516;2023-07-09T06:12:22;10.07;;;9.07;;
60722;SDS011;46574;52.818;6.516;2023-07-09T06:14:48;11.35;;;10.25;;
60722;SDS011;46574;52.818;6.516;2023-07-09T06:17:14;13.25;;;11.18;;
60722;SDS011;46574;52.818;6.516;2023-07-09T06:19:39;14.13;;;12.68;;
60722;SDS011;46574;52.818;6.516;2023-07-09T06:22:05;12.25;;;10.95;;
60722;SDS011;46574;52.818;6.516;2023-07-09T06:24:31;13.50;;;12.13;;
60722;SDS011;46574;52.818;6.516;2023-07-09T06:26:57;14.18;;;12.43;;
60722;SDS011;46574;52.818;6.516;2023-07-09T06:29:24;12.90;;;11.60;;
60722;SDS011;46574;52.818;6.516;2023-07-09T06:31:50;12.63;;;11.32;;
60722;SDS011;46574;52.818;6.516;2023-07-09T06:34:16;13.55;;;11.63;;
60722;SDS011;46574;52.818;6.516;2023-07-09T06:36:41;12.80;;;11.48;;
60722;SDS011;46574;52.818;6.516;2023-07-09T06:39:07;13.65;;;12.30;;
60722;SDS011;46574;52.818;6.516;2023-07-09T06:41:33;13.95;;;12.30;;
60722;SDS011;46574;52.818;6.516;2023-07-09T06:44:04;11.48;;;10.40;;
60722;SDS011;46574;52.818;6.516;2023-07-09T06:46:33;11.80;;;10.60;;
60722;SDS011;46574;52.818;6.516;2023-07-09T06:48:59;14.02;;;12.52;;
60722;SDS011;46574;52.818;6.516;2023-07-09T06:51:26;12.85;;;11.57;;
60722;SDS011;46574;52.818;6.516;2023-07-09T06:53:51;10.95;;;9.98;;
60722;SDS011;46574;52.818;6.516;2023-07-09T06:56:17;12.07;;;10.88;;
60722;SDS011;46574;52.818;6.516;2023-07-09T06:58:43;13.43;;;11.63;;
60722;SDS011;46574;52.818;6.516;2023-07-09T07:01:11;11.48;;;10.38;;
60722;SDS011;46574;52.818;6.516;2023-07-09T07:03:37;11.27;;;10.13;;
60722;SDS011;46574;52.818;6.516;2023-07-09T07:06:03;12.13;;;10.98;;
60722;SDS011;46574;52.818;6.516;2023-07-09T07:08:31;11.65;;;10.52;;
60722;SDS011;46574;52.818;6.516;2023-07-09T07:10:59;16.02;;;12.27;;
60722;SDS011;46574;52.818;6.516;2023-07-09T07:13:28;10.88;;;9.88;;
60722;SDS011;46574;52.818;6.516;2023-07-09T07:15:54;12.88;;;11.23;;
60722;SDS011;46574;52.818;6.516;2023-07-09T07:18:20;12.73;;;11.50;;
60722;SDS011;46574;52.818;6.516;2023-07-09T07:20:46;13.75;;;12.40;;
60722;SDS011;46574;52.818;6.516;2023-07-09T07:23:11;12.30;;;11.07;;
60722;SDS011;46574;52.818;6.516;2023-07-09T07:25:37;14.20;;;12.75;;
60722;SDS011;46574;52.818;6.516;2023-07-09T07:28:03;14.95;;;13.55;;
60722;SDS011;46574;52.818;6.516;2023-07-09T07:30:29;13.63;;;12.32;;
60722;SDS011;46574;52.818;6.516;2023-07-09T07:32:55;12.05;;;10.88;;
60722;SDS011;46574;52.818;6.516;2023-07-09T07:35:20;10.27;;;9.25;;
60722;SDS011;46574;52.818;6.516;2023-07-09T07:37:46;13.30;;;11.52;;
60722;SDS011;46574;52.818;6.516;2023-07-09T07:40:12;10.85;;;9.75;;
60722;SDS011;46574;52.818;6.516;2023-07-09T07:42:38;11.07;;;10.00;;
60722;SDS011;46574;52.818;6.516;2023-07-09T07:45:03;11.05;;;9.95;;
60722;SDS011;46574;52.818;6.516;2023-07-09T07:47:30;11.82;;;10.70;;
60722;SDS011;46574;52.818;6.516;2023-07-09T07:49:56;10.40;;;9.35;;
60722;SDS011;46574;52.818;6.516;2023-07-09T07:52:22;10.52;;;9.45;;
60722;SDS011;46574;52.818;6.516;2023-07-09T07:54:49;10.23;;;8.65;;
60722;SDS011;46574;52.818;6.516;2023-07-09T07:57:15;9.13;;;8.23;;
60722;SDS011;46574;52.818;6.516;2023-07-09T07:59:41;9.27;;;8.38;;
60722;SDS011;46574;52.818;6.516;2023-07-09T08:02:10;9.70;;;8.73;;
60722;SDS011;46574;52.818;6.516;2023-07-09T08:04:38;8.35;;;7.55;;
60722;SDS011;46574;52.818;6.516;2023-07-09T08:07:05;9.50;;;8.52;;
60722;SDS011;46574;52.818;6.516;2023-07-09T08:09:32;9.37;;;7.90;;
60722;SDS011;46574;52.818;6.516;2023-07-09T08:11:58;8.77;;;7.70;;
60722;SDS011;46574;52.818;6.516;2023-07-09T08:14:24;9.10;;;7.28;;
60722;SDS011;46574;52.818;6.516;2023-07-09T08:16:50;8.63;;;7.60;;
60722;SDS011;46574;52.818;6.516;2023-07-09T08:19:17;9.60;;;8.00;;
60722;SDS011;46574;52.818;6.516;2023-07-09T08:21:44;8.57;;;7.72;;
60722;SDS011;46574;52.818;6.516;2023-07-09T08:24:10;9.65;;;7.75;;
60722;SDS011;46574;52.818;6.516;2023-07-09T08:26:36;7.78;;;7.07;;
60722;SDS011;46574;52.818;6.516;2023-07-09T08:29:03;7.43;;;6.72;;
60722;SDS011;46574;52.818;6.516;2023-07-09T08:31:30;8.85;;;7.82;;
60722;SDS011;46574;52.818;6.516;2023-07-09T08:33:56;8.25;;;7.45;;
60722;SDS011;46574;52.818;6.516;2023-07-09T08:36:21;10.10;;;7.10;;
60722;SDS011;46574;52.818;6.516;2023-07-09T08:38:49;7.78;;;6.97;;
60722;SDS011;46574;52.818;6.516;2023-07-09T08:41:36;8.43;;;7.63;;
60722;SDS011;46574;52.818;6.516;2023-07-09T08:47:10;7.78;;;6.97;;
60722;SDS011;46574;52.818;6.516;2023-07-09T08:49:48;7.65;;;6.95;;
60722;SDS011;46574;52.818;6.516;2023-07-09T08:57:35;8.52;;;7.57;;
60722;SDS011;46574;52.818;6.516;2023-07-09T09:00:05;8.20;;;7.40;;
60722;SDS011;46574;52.818;6.516;2023-07-09T09:02:48;9.15;;;8.32;;
60722;SDS011;46574;52.818;6.516;2023-07-09T09:05:21;9.90;;;8.90;;
60722;SDS011;46574;52.818;6.516;2023-07-09T09:07:55;8.50;;;7.70;;
60722;SDS011;46574;52.818;6.516;2023-07-09T09:11:30;9.15;;;8.25;;
60722;SDS011;46574;52.818;6.516;2023-07-09T09:13:31;9.55;;;7.97;;
60722;SDS011;46574;52.818;6.516;2023-07-09T09:15:59;8.30;;;7.35;;
60722;SDS011;46574;52.818;6.516;2023-07-09T09:18:37;9.35;;;8.50;;
60722;SDS011;46574;52.818;6.516;2023-07-09T09:24:12;9.50;;;8.57;;
60722;SDS011;46574;52.818;6.516;2023-07-09T09:26:38;8.40;;;7.32;;
60722;SDS011;46574;52.818;6.516;2023-07-09T09:29:11;9.98;;;8.55;;
60722;SDS011;46574;52.818;6.516;2023-07-09T09:31:39;10.60;;;8.52;;
60722;SDS011;46574;52.818;6.516;2023-07-09T09:34:16;8.57;;;7.30;;
60722;SDS011;46574;52.818;6.516;2023-07-09T09:36:46;6.93;;;6.30;;
60722;SDS011;46574;52.818;6.516;2023-07-09T09:39:12;8.48;;;7.68;;
60722;SDS011;46574;52.818;6.516;2023-07-09T09:41:38;8.23;;;7.40;;
60722;SDS011;46574;52.818;6.516;2023-07-09T09:44:05;7.65;;;6.88;;
60722;SDS011;46574;52.818;6.516;2023-07-09T09:46:31;9.23;;;8.20;;
60722;SDS011;46574;52.818;6.516;2023-07-09T09:49:01;7.30;;;6.60;;
60722;SDS011;46574;52.818;6.516;2023-07-09T09:51:33;6.93;;;6.22;;
60722;SDS011;46574;52.818;6.516;2023-07-09T09:56:33;6.80;;;6.07;;
60722;SDS011;46574;52.818;6.516;2023-07-09T09:59:00;7.18;;;6.28;;
60722;SDS011;46574;52.818;6.516;2023-07-09T10:03:56;8.63;;;6.83;;
60722;SDS011;46574;52.818;6.516;2023-07-09T10:09:02;8.70;;;6.93;;
60722;SDS011;46574;52.818;6.516;2023-07-09T10:11:39;7.60;;;6.90;;
60722;SDS011;46574;52.818;6.516;2023-07-09T10:16:48;8.85;;;7.63;;
60722;SDS011;46574;52.818;6.516;2023-07-09T10:19:21;7.22;;;6.53;;
60722;SDS011;46574;52.818;6.516;2023-07-09T10:21:57;7.95;;;7.25;;
60722;SDS011;46574;52.818;6.516;2023-07-09T10:24:37;6.22;;;5.63;;
60722;SDS011;46574;52.818;6.516;2023-07-09T10:27:16;5.82;;;5.32;;
60722;SDS011;46574;52.818;6.516;2023-07-09T10:40:54;6.80;;;6.18;;
60722;SDS011;46574;52.818;6.516;2023-07-09T10:43:27;6.47;;;5.88;;
60722;SDS011;46574;52.818;6.516;2023-07-09T10:45:59;6.38;;;5.78;;
60722;SDS011;46574;52.818;6.516;2023-07-09T10:48:36;7.88;;;6.38;;
60722;SDS011;46574;52.818;6.516;2023-07-09T10:51:05;6.40;;;5.80;;
60722;SDS011;46574;52.818;6.516;2023-07-09T10:53:56;8.57;;;6.75;;
60722;SDS011;46574;52.818;6.516;2023-07-09T10:56:26;7.32;;;6.60;;
60722;SDS011;46574;52.818;6.516;2023-07-09T11:01:54;9.10;;;6.72;;
60722;SDS011;46574;52.818;6.516;2023-07-09T11:04:29;8.35;;;6.10;;
60722;SDS011;46574;52.818;6.516;2023-07-09T11:06:59;8.52;;;6.60;;
60722;SDS011;46574;52.818;6.516;2023-07-09T11:09:30;7.10;;;6.40;;
60722;SDS011;46574;52.818;6.516;2023-07-09T11:12:04;6.57;;;5.97;;
60722;SDS011;46574;52.818;6.516;2023-07-09T11:14:45;7.30;;;6.28;;
60722;SDS011;46574;52.818;6.516;2023-07-09T11:17:20;7.82;;;6.13;;
60722;SDS011;46574;52.818;6.516;2023-07-09T11:19:48;6.80;;;6.10;;
60722;SDS011;46574;52.818;6.516;2023-07-09T11:22:25;8.85;;;6.60;;
60722;SDS011;46574;52.818;6.516;2023-07-09T11:25:10;6.85;;;5.80;;
60722;SDS011;46574;52.818;6.516;2023-07-09T11:28:12;6.45;;;5.40;;
60722;SDS011;46574;52.818;6.516;2023-07-09T11:30:31;7.50;;;6.07;;
60722;SDS011;46574;52.818;6.516;2023-07-09T11:33:02;6.90;;;5.75;;
60722;SDS011;46574;52.818;6.516;2023-07-09T11:38:24;6.45;;;5.85;;
60722;SDS011;46574;52.818;6.516;2023-07-09T11:40:51;8.15;;;5.70;;
60722;SDS011;46574;52.818;6.516;2023-07-09T11:45:56;6.50;;;5.32;;
60722;SDS011;46574;52.818;6.516;2023-07-09T11:48:29;5.60;;;5.00;;
60722;SDS011;46574;52.818;6.516;2023-07-09T11:51:00;7.07;;;5.75;;
60722;SDS011;46574;52.818;6.516;2023-07-09T11:53:52;5.78;;;5.22;;
60722;SDS011;46574;52.818;6.516;2023-07-09T11:56:19;6.57;;;5.72;;
60722;SDS011;46574;52.818;6.516;2023-07-09T11:58:49;6.30;;;5.47;;
60722;SDS011;46574;52.818;6.516;2023-07-09T12:01:17;6.78;;;5.40;;
60722;SDS011;46574;52.818;6.516;2023-07-09T12:03:48;5.65;;;5.15;;
60722;SDS011;46574;52.818;6.516;2023-07-09T12:06:21;6.25;;;5.50;;
60722;SDS011;46574;52.818;6.516;2023-07-09T12:08:56;5.28;;;4.78;;
60722;SDS011;46574;52.818;6.516;2023-07-09T12:13:53;6.63;;;5.47;;
60722;SDS011;46574;52.818;6.516;2023-07-09T12:16:20;7.03;;;4.95;;
60722;SDS011;46574;52.818;6.516;2023-07-09T12:18:48;6.40;;;5.80;;
60722;SDS011;46574;52.818;6.516;2023-07-09T12:21:13;6.18;;;5.50;;
60722;SDS011;46574;52.818;6.516;2023-07-09T12:23:39;8.02;;;5.50;;
60722;SDS011;46574;52.818;6.516;2023-07-09T12:26:06;5.65;;;5.20;;
60722;SDS011;46574;52.818;6.516;2023-07-09T12:28:36;5.78;;;5.18;;
60722;SDS011;46574;52.818;6.516;2023-07-09T12:31:02;5.55;;;5.05;;
60722;SDS011;46574;52.818;6.516;2023-07-09T12:33:28;6.70;;;5.30;;
60722;SDS011;46574;52.818;6.516;2023-07-09T12:36:01;6.40;;;5.75;;
60722;SDS011;46574;52.818;6.516;2023-07-09T12:38:30;5.82;;;5.22;;
60722;SDS011;46574;52.818;6.516;2023-07-09T12:41:06;6.65;;;5.00;;
60722;SDS011;46574;52.818;6.516;2023-07-09T12:43:45;4.68;;;4.20;;
60722;SDS011;46574;52.818;6.516;2023-07-09T12:46:11;6.70;;;4.88;;
60722;SDS011;46574;52.818;6.516;2023-07-09T12:48:38;6.15;;;5.40;;
60722;SDS011;46574;52.818;6.516;2023-07-09T12:51:06;6.20;;;5.05;;
60722;SDS011;46574;52.818;6.516;2023-07-09T12:53:33;5.65;;;5.15;;
60722;SDS011;46574;52.818;6.516;2023-07-09T12:56:01;5.78;;;5.22;;
60722;SDS011;46574;52.818;6.516;2023-07-09T12:58:30;6.35;;;5.38;;
60722;SDS011;46574;52.818;6.516;2023-07-09T13:01:04;5.03;;;4.63;;
60722;SDS011;46574;52.818;6.516;2023-07-09T13:03:32;7.15;;;5.32;;
60722;SDS011;46574;52.818;6.516;2023-07-09T13:06:00;5.55;;;4.95;;
60722;SDS011;46574;52.818;6.516;2023-07-09T13:08:31;7.05;;;4.82;;
60722;SDS011;46574;52.818;6.516;2023-07-09T13:10:59;6.07;;;5.47;;
60722;SDS011;46574;52.818;6.516;2023-07-09T13:13:26;8.70;;;6.65;;
60722;SDS011;46574;52.818;6.516;2023-07-09T13:15:52;5.40;;;4.88;;
60722;SDS011;46574;52.818;6.516;2023-07-09T13:18:22;5.75;;;5.25;;
60722;SDS011;46574;52.818;6.516;2023-07-09T13:20:53;5.78;;;5.07;;
60722;SDS011;46574;52.818;6.516;2023-07-09T13:23:22;5.10;;;4.60;;
60722;SDS011;46574;52.818;6.516;2023-07-09T13:25:50;7.20;;;5.00;;
60722;SDS011;46574;52.818;6.516;2023-07-09T13:28:18;5.57;;;5.07;;
60722;SDS011;46574;52.818;6.516;2023-07-09T13:30:49;5.82;;;5.20;;
60722;SDS011;46574;52.818;6.516;2023-07-09T13:33:16;5.00;;;4.50;;
60722;SDS011;46574;52.818;6.516;2023-07-09T13:35:43;5.57;;;4.80;;
60722;SDS011;46574;52.818;6.516;2023-07-09T13:38:19;6.20;;;4.60;;
60722;SDS011;46574;52.818;6.516;2023-07-09T13:40:47;6.65;;;5.93;;
60722;SDS011;46574;52.818;6.516;2023-07-09T13:43:15;8.57;;;5.45;;
60722;SDS011;46574;52.818;6.516;2023-07-09T13:45:45;7.70;;;5.25;;
60722;SDS011;46574;52.818;6.516;2023-07-09T13:48:17;7.93;;;5.35;;
60722;SDS011;46574;52.818;6.516;2023-07-09T13:50:45;5.68;;;5.18;;
60722;SDS011;46574;52.818;6.516;2023-07-09T13:53:16;6.97;;;5.22;;
60722;SDS011;46574;52.818;6.516;2023-07-09T13:55:44;6.65;;;6.05;;
60722;SDS011;46574;52.818;6.516;2023-07-09T13:58:11;6.30;;;5.40;;
60722;SDS011;46574;52.818;6.516;2023-07-09T14:00:40;6.53;;;5.72;;
60722;SDS011;46574;52.818;6.516;2023-07-09T14:03:24;6.03;;;5.07;;
60722;SDS011;46574;52.818;6.516;2023-07-09T14:05:53;6.65;;;5.95;;
60722;SDS011;46574;52.818;6.516;2023-07-09T14:08:19;6.63;;;5.70;;
60722;SDS011;46574;52.818;6.516;2023-07-09T14:10:46;7.55;;;5.93;;
60722;SDS011;46574;52.818;6.516;2023-07-09T14:13:17;6.47;;;5.88;;
60722;SDS011;46574;52.818;6.516;2023-07-09T14:15:45;7.38;;;6.13;;
60722;SDS011;46574;52.818;6.516;2023-07-09T14:18:14;6.78;;;5.50;;
60722;SDS011;46574;52.818;6.516;2023-07-09T14:20:41;6.50;;;5.90;;
60722;SDS011;46574;52.818;6.516;2023-07-09T14:23:09;6.00;;;5.40;;
60722;SDS011;46574;52.818;6.516;2023-07-09T14:25:41;7.00;;;4.90;;
60722;SDS011;46574;52.818;6.516;2023-07-09T14:28:12;5.40;;;4.90;;
60722;SDS011;46574;52.818;6.516;2023-07-09T14:30:40;5.13;;;4.72;;
60722;SDS011;46574;52.818;6.516;2023-07-09T14:33:09;5.93;;;5.40;;
60722;SDS011;46574;52.818;6.516;2023-07-09T14:35:42;6.70;;;5.78;;
60722;SDS011;46574;52.818;6.516;2023-07-09T14:38:19;5.57;;;5.07;;
60722;SDS011;46574;52.818;6.516;2023-07-09T14:40:48;6.05;;;5.45;;
60722;SDS011;46574;52.818;6.516;2023-07-09T14:43:15;5.55;;;5.03;;
60722;SDS011;46574;52.818;6.516;2023-07-09T14:45:41;6.82;;;5.43;;
60722;SDS011;46574;52.818;6.516;2023-07-09T14:48:11;6.93;;;5.90;;
60722;SDS011;46574;52.818;6.516;2023-07-09T14:50:38;5.35;;;4.95;;
60722;SDS011;46574;52.818;6.516;2023-07-09T14:53:09;6.05;;;5.45;;
60722;SDS011;46574;52.818;6.516;2023-07-09T14:55:40;7.05;;;5.15;;
60722;SDS011;46574;52.818;6.516;2023-07-09T14:58:11;6.07;;;5.05;;
60722;SDS011;46574;52.818;6.516;2023-07-09T15:00:41;7.15;;;6.55;;
60722;SDS011;46574;52.818;6.516;2023-07-09T15:03:09;8.60;;;6.03;;
60722;SDS011;46574;52.818;6.516;2023-07-09T15:05:36;10.02;;;6.43;;
60722;SDS011;46574;52.818;6.516;2023-07-09T15:08:09;12.45;;;6.95;;
60722;SDS011;46574;52.818;6.516;2023-07-09T15:10:38;13.73;;;7.63;;
60722;SDS011;46574;52.818;6.516;2023-07-09T15:13:04;26.15;;;10.27;;
60722;SDS011;46574;52.818;6.516;2023-07-09T15:15:33;16.70;;;10.00;;
60722;SDS011;46574;52.818;6.516;2023-07-09T15:17:59;12.88;;;6.80;;
60722;SDS011;46574;52.818;6.516;2023-07-09T15:20:33;9.88;;;6.47;;
60722;SDS011;46574;52.818;6.516;2023-07-09T15:22:59;7.25;;;5.50;;
60722;SDS011;46574;52.818;6.516;2023-07-09T15:25:26;8.05;;;7.25;;
60722;SDS011;46574;52.818;6.516;2023-07-09T15:27:53;10.23;;;8.07;;
60722;SDS011;46574;52.818;6.516;2023-07-09T15:30:22;10.38;;;7.72;;
60722;SDS011;46574;52.818;6.516;2023-07-09T15:32:50;9.45;;;7.65;;
60722;SDS011;46574;52.818;6.516;2023-07-09T15:35:17;8.40;;;7.22;;
60722;SDS011;46574;52.818;6.516;2023-07-09T15:37:44;7.93;;;6.70;;
60722;SDS011;46574;52.818;6.516;2023-07-09T15:40:13;9.13;;;6.70;;
60722;SDS011;46574;52.818;6.516;2023-07-09T15:42:40;7.75;;;6.93;;
60722;SDS011;46574;52.818;6.516;2023-07-09T15:45:06;7.95;;;7.15;;